Time;durP1;ratioP1;P1;durP2;ratioP2;P2;SDS_P1;SDS_P2;PMS_P1;PMS_P2;Temp;Humidity;BMP_temperature;BMP_pressure;BME280_temperature;BME280_humidity;BME280_pressure;Samples;Min_cycle;Max_cycle;Signal;HPM_P1;HPM_P2
2023/03/29 00:01:41;;;;;;;5.10;2.10;;;;;;;5.37;46.25;98787.91;4486325;32;20161;-88
2023/03/29 00:04:08;;;;;;;7.30;2.10;;;;;;;4.78;46.97;98786.72;4486907;31;20163;-88
2023/03/29 00:06:36;;;;;;;4.93;1.90;;;;;;;5.60;45.00;98772.31;4485713;32;20139;-88
2023/03/29 00:09:08;;;;;;;7.00;1.85;;;;;;;4.54;47.78;98768.16;4487167;31;20084;-88
2023/03/29 00:11:35;;;;;;;9.32;2.08;;;;;;;4.86;47.01;98767.06;4485796;32;20156;-88
2023/03/29 00:14:02;;;;;;;9.88;1.95;;;;;;;4.44;49.02;98761.41;4486250;32;20116;-88
2023/03/29 00:16:29;;;;;;;5.25;1.85;;;;;;;3.71;52.16;98755.00;4487067;31;20072;-88
2023/03/29 00:18:57;;;;;;;10.98;2.25;;;;;;;3.42;53.11;98750.03;4485561;32;20104;-88
2023/03/29 00:21:24;;;;;;;7.10;2.30;;;;;;;4.16;51.55;98752.25;4486106;32;20123;-88
2023/03/29 00:23:58;;;;;;;5.78;2.10;;;;;;;3.85;51.71;98754.12;4485663;32;20188;-88
2023/03/29 00:26:25;;;;;;;8.18;2.10;;;;;;;4.12;51.25;98763.31;4486016;32;20080;-88
2023/03/29 00:28:52;;;;;;;6.18;1.90;;;;;;;4.49;49.85;98753.75;4472815;32;20159;-88
2023/03/29 00:31:20;;;;;;;8.40;2.05;;;;;;;5.51;47.11;98756.19;4472437;32;20188;-88
2023/03/29 00:33:47;;;;;;;5.97;2.00;;;;;;;5.78;46.13;98761.88;4472978;32;20435;-88
2023/03/29 00:36:14;;;;;;;7.03;2.00;;;;;;;6.38;44.66;98761.97;4473054;32;20123;-88
2023/03/29 00:38:42;;;;;;;6.57;2.22;;;;;;;6.79;43.90;98766.44;4472309;32;20108;-88
2023/03/29 00:41:10;;;;;;;6.35;2.47;;;;;;;7.57;41.83;98762.50;4485957;32;20147;-88
2023/03/29 00:44:00;;;;;;;7.43;2.20;;;;;;;7.26;42.37;98767.34;4472198;31;20088;-88
2023/03/29 00:46:30;;;;;;;7.07;2.10;;;;;;;6.89;42.85;98769.69;4472163;32;20103;-88
2023/03/29 00:49:04;;;;;;;5.65;2.10;;;;;;;6.67;43.48;98764.91;4472891;32;20161;-88
2023/03/29 00:51:33;;;;;;;4.62;1.92;;;;;;;6.57;43.84;98763.34;4485534;32;20131;-88
2023/03/29 00:54:23;;;;;;;5.65;2.25;;;;;;;6.54;44.20;98765.13;4485242;32;20096;-88
2023/03/29 01:01:41;;;;;;;6.10;2.03;;;;;;;6.13;45.63;98746.06;4475599;32;20097;-88
2023/03/29 01:05:29;;;;;;;6.93;2.08;;;;;;;6.00;45.65;98736.84;4452887;32;20193;-86
2023/03/29 01:20:51;;;;;;;;;;;;;;;;;;;;;
2023/03/29 01:23:58;;;;;;;4.28;2.00;;;;;;;5.51;45.88;98738.25;4270039;33;20092;-87
2023/03/29 01:27:22;;;;;;;;;;;;;;;;;;;;;
2023/03/29 01:30:36;;;;;;;5.18;1.83;;;;;;;5.21;48.21;98747.16;4348674;33;20485;-87
2023/03/29 01:33:39;;;;;;;;;;;;;;;;;;;;;
2023/03/29 01:36:48;;;;;;;4.62;1.80;;;;;;;4.49;50.14;98744.37;4363645;32;20500;-86
2023/03/29 01:39:55;;;;;;;4.53;1.70;;;;;;;4.68;49.45;98746.75;4372724;32;20082;-87
2023/03/29 01:43:33;;;;;;;;;;;;;;;;;;;;;
2023/03/29 01:50:16;;;;;;;5.70;1.98;;;;;;;6.00;45.57;98747.94;4370675;32;20150;-86
2023/03/29 01:53:28;;;;;;;5.37;1.85;;;;;;;6.41;43.95;98745.69;4377812;32;20112;-86
2023/03/29 01:56:59;;;;;;;4.95;1.70;;;;;;;4.88;46.62;98735.50;4336585;32;20575;-86
2023/03/29 02:00:19;;;;;;;6.87;2.00;;;;;;;6.15;44.63;98748.59;4345140;32;20135;-86
2023/03/29 02:07:36;;;;;;;5.93;2.03;;;;;;;6.59;43.74;98753.94;4321539;33;20167;-86
2023/03/29 02:10:39;;;;;;;5.53;1.75;;;;;;;7.06;41.87;98742.03;4320255;33;20143;-86
2023/03/29 02:17:42;;;;;;;4.87;1.77;;;;;;;6.85;42.98;98747.53;4324550;33;20206;-86
2023/03/29 02:21:10;;;;;;;6.47;2.10;;;;;;;6.71;42.78;98755.47;4325579;33;20435;-86
2023/03/29 02:28:15;;;;;;;4.72;1.90;;;;;;;6.96;42.15;98756.75;4408080;32;20146;-86
2023/03/29 02:31:25;;;;;;;5.95;1.80;;;;;;;6.28;44.05;98775.78;4396013;32;20094;-86
2023/03/29 02:34:41;;;;;;;4.30;1.92;;;;;;;7.01;42.54;98777.19;4337586;33;20141;-86
2023/03/29 02:41:18;;;;;;;;;;;;;;;;;;;;;
2023/03/29 02:44:29;;;;;;;6.32;1.87;;;;;;;6.64;43.26;98774.37;4372713;32;20144;-86
2023/03/29 02:47:55;;;;;;;5.57;1.85;;;;;;;5.93;45.24;98779.63;4404277;32;20070;-86
2023/03/29 02:51:46;;;;;;;4.28;1.70;;;;;;;5.61;47.49;98774.00;4373153;32;20114;-87
2023/03/29 02:58:17;;;;;;;5.03;1.77;;;;;;;6.77;45.21;98762.19;4410235;32;20477;-87
2023/03/29 03:01:13;;;;;;;8.05;2.20;;;;;;;6.98;44.63;98766.97;4412121;32;20196;-87
2023/03/29 03:03:47;;;;;;;6.75;2.15;;;;;;;6.51;44.41;98768.59;4410103;32;20099;-86
2023/03/29 03:06:28;;;;;;;4.23;1.67;;;;;;;6.91;43.14;98758.56;4410667;32;20116;-86
2023/03/29 03:09:09;;;;;;;5.53;2.00;;;;;;;7.12;42.25;98756.47;4423584;32;20516;-86
2023/03/29 03:11:42;;;;;;;9.63;1.95;;;;;;;6.72;42.37;98751.19;4447689;32;20539;-86
2023/03/29 03:14:15;;;;;;;6.62;2.22;;;;;;;6.98;41.53;98764.41;4486444;32;20096;-87
2023/03/29 03:16:46;;;;;;;6.03;2.10;;;;;;;6.82;41.61;98757.88;4486568;32;20434;-86
2023/03/29 03:19:33;;;;;;;8.15;2.20;;;;;;;7.38;40.47;98764.56;4474900;32;20151;-87
2023/03/29 03:22:13;;;;;;;6.12;2.30;;;;;;;7.59;39.64;98763.31;4486484;32;20072;-87
2023/03/29 03:24:41;;;;;;;3.87;1.60;;;;;;;7.21;41.21;98770.00;4473995;32;20131;-86
2023/03/29 03:27:17;;;;;;;4.68;1.50;;;;;;;7.24;40.57;98774.25;4473381;32;20545;-86
2023/03/29 03:29:54;;;;;;;7.40;2.12;;;;;;;5.70;45.26;98769.62;4486324;32;20421;-87
2023/03/29 03:32:28;;;;;;;5.22;1.95;;;;;;;5.63;47.05;98778.22;4473475;32;20454;-86
2023/03/29 03:35:02;;;;;;;5.85;2.12;;;;;;;5.26;48.95;98771.81;4473226;32;20493;-86
2023/03/29 03:37:38;;;;;;;6.37;2.20;;;;;;;5.19;50.00;98781.25;4474068;32;20126;-86
2023/03/29 03:40:12;;;;;;;6.60;2.20;;;;;;;4.88;50.57;98773.84;4473422;32;20107;-86
2023/03/29 03:42:50;;;;;;;8.82;2.60;;;;;;;5.01;51.41;98800.19;4485787;32;20092;-86
2023/03/29 03:45:19;;;;;;;8.25;2.15;;;;;;;4.89;52.06;98793.47;4487685;31;20104;-86
2023/03/29 03:47:58;;;;;;;6.90;2.40;;;;;;;4.09;55.34;98799.94;4485451;32;20140;-86
2023/03/29 03:50:32;;;;;;;12.30;2.97;;;;;;;4.74;53.39;98793.59;4486456;32;20092;-86
2023/03/29 03:53:06;;;;;;;8.25;2.60;;;;;;;5.38;51.80;98810.09;4486466;32;20107;-86
2023/03/29 03:55:35;;;;;;;11.10;3.17;;;;;;;6.07;49.10;98813.63;4486935;32;20115;-86
2023/03/29 03:58:16;;;;;;;10.93;3.37;;;;;;;5.92;49.54;98808.66;4487507;32;20176;-86
2023/03/29 04:00:49;;;;;;;9.15;2.80;;;;;;;5.95;49.13;98800.94;4487371;31;20139;-86
2023/03/29 04:03:22;;;;;;;10.60;3.08;;;;;;;5.89;49.57;98816.38;4486101;32;20454;-86
2023/03/29 04:05:59;;;;;;;8.02;2.78;;;;;;;5.77;50.07;98806.25;4487344;32;20135;-86
2023/03/29 04:08:28;;;;;;;7.80;2.45;;;;;;;6.41;47.94;98813.16;4487043;31;20106;-86
2023/03/29 04:11:00;;;;;;;9.57;3.00;;;;;;;6.16;48.83;98802.38;4487200;31;20580;-86
2023/03/29 04:13:30;;;;;;;9.15;3.05;;;;;;;5.59;50.16;98789.37;4487254;31;20141;-86
2023/03/29 04:15:57;;;;;;;8.80;3.08;;;;;;;5.84;49.61;98796.78;4485728;32;20123;-86
2023/03/29 04:18:33;;;;;;;10.93;3.33;;;;;;;4.93;52.18;98795.16;4486134;32;20459;-87
2023/03/29 04:21:05;;;;;;;7.70;2.80;;;;;;;5.31;51.08;98777.72;4473000;32;20080;-87
2023/03/29 04:23:35;;;;;;;9.07;3.20;;;;;;;5.16;51.53;98776.19;4485810;32;20469;-87
2023/03/29 04:26:11;;;;;;;7.12;2.80;;;;;;;5.74;49.99;98773.87;4485884;32;20115;-87
2023/03/29 04:28:45;;;;;;;7.62;2.78;;;;;;;6.35;48.47;98782.50;4486267;32;20104;-87
2023/03/29 04:31:14;;;;;;;9.77;2.78;;;;;;;6.27;48.22;98784.31;4485812;32;20114;-87
2023/03/29 04:34:00;;;;;;;9.52;2.67;;;;;;;6.42;47.49;98778.97;4473999;32;20159;-87
2023/03/29 04:36:40;;;;;;;11.23;2.58;;;;;;;6.81;46.27;98769.00;4473113;32;20119;-86
2023/03/29 04:39:17;;;;;;;9.40;2.90;;;;;;;7.27;45.17;98766.47;4473014;32;20112;-87
2023/03/29 04:41:48;;;;;;;13.62;3.55;;;;;;;7.38;44.76;98777.41;4487002;31;20451;-87
2023/03/29 04:44:18;;;;;;;6.18;2.60;;;;;;;7.40;45.15;98782.50;4472426;32;20106;-86
2023/03/29 04:46:46;;;;;;;8.38;2.92;;;;;;;7.49;44.51;98777.19;4485586;32;20526;-86
2023/03/29 04:49:17;;;;;;;7.87;2.40;;;;;;;6.73;46.38;98784.50;4472069;32;20239;-87
2023/03/29 04:51:49;;;;;;;8.77;2.78;;;;;;;6.26;47.75;98780.87;4485042;32;20603;-87
2023/03/29 04:54:22;;;;;;;8.70;2.50;;;;;;;5.33;49.72;98787.13;4473565;32;20144;-86
2023/03/29 04:56:51;;;;;;;7.15;2.50;;;;;;;5.96;48.92;98789.00;4487518;32;20120;-86
2023/03/29 04:59:20;;;;;;;7.10;2.20;;;;;;;5.90;48.64;98769.44;4487073;32;20100;-87
2023/03/29 05:01:47;;;;;;;11.43;2.62;;;;;;;5.83;49.10;98788.25;4487766;32;20099;-86
2023/03/29 05:04:14;;;;;;;6.07;2.30;;;;;;;6.19;48.65;98769.06;4488692;31;20198;-87
2023/03/29 05:06:41;;;;;;;7.68;2.40;;;;;;;6.78;47.11;98782.69;4488265;31;20092;-87
2023/03/29 05:09:09;;;;;;;9.10;2.40;;;;;;;6.72;46.63;98780.25;4488680;31;20153;-87
2023/03/29 05:11:37;;;;;;;5.70;2.03;;;;;;;6.64;46.70;98784.62;4488152;31;20100;-86
2023/03/29 05:14:06;;;;;;;7.65;2.83;;;;;;;6.61;47.12;98775.28;4488577;31;20171;-87
2023/03/29 05:16:33;;;;;;;8.88;2.03;;;;;;;5.97;48.28;98773.63;4488431;31;20157;-87
2023/03/29 05:19:00;;;;;;;8.05;2.62;;;;;;;6.47;48.31;98773.78;4486923;32;20126;-87
2023/03/29 05:21:27;;;;;;;9.35;2.85;;;;;;;6.97;47.63;98775.56;4487477;32;20158;-87
2023/03/29 05:23:54;;;;;;;6.82;2.33;;;;;;;7.23;47.01;98773.41;4488468;31;20145;-87
2023/03/29 05:26:22;;;;;;;6.82;2.40;;;;;;;7.23;47.16;98775.09;4488111;31;20100;-87
2023/03/29 05:28:50;;;;;;;7.97;2.28;;;;;;;7.56;46.43;98770.25;4488353;31;20159;-87
2023/03/29 05:31:17;;;;;;;5.10;2.10;;;;;;;7.47;46.24;98766.97;4488443;31;20099;-88
2023/03/29 05:33:47;;;;;;;8.15;2.40;;;;;;;7.58;45.15;98755.62;4488097;31;20088;-87
2023/03/29 05:36:15;;;;;;;6.37;2.40;;;;;;;7.91;44.52;98769.53;4488345;31;20104;-86
2023/03/29 05:38:46;;;;;;;6.85;2.20;;;;;;;8.95;43.24;98760.34;4487452;32;20092;-87
2023/03/29 05:41:14;;;;;;;8.57;2.10;;;;;;;9.78;41.16;98777.00;4488039;31;20080;-87
2023/03/29 05:43:41;;;;;;;6.28;2.10;;;;;;;10.82;38.54;98773.94;4488407;31;20153;-87
2023/03/29 05:46:09;;;;;;;6.60;2.50;;;;;;;11.60;37.56;98777.31;4488321;31;20126;-87
2023/03/29 05:48:36;;;;;;;8.20;2.42;;;;;;;11.78;36.28;98779.25;4487824;31;20092;-87
2023/03/29 05:51:03;;;;;;;7.12;2.30;;;;;;;11.12;37.33;98779.84;4488161;31;20417;-87
2023/03/29 05:53:31;;;;;;;6.12;2.20;;;;;;;11.29;37.17;98780.97;4488362;31;20084;-87
2023/03/29 05:55:58;;;;;;;6.45;2.17;;;;;;;10.15;39.34;98785.41;4488108;31;20100;-87
2023/03/29 05:58:27;;;;;;;7.37;2.30;;;;;;;10.64;39.08;98783.13;4488396;32;20119;-87
2023/03/29 06:00:54;;;;;;;7.97;2.30;;;;;;;10.75;38.22;98780.19;4490030;31;20615;-83
2023/03/29 06:03:24;;;;;;;8.07;2.58;;;;;;;10.92;38.18;98780.47;4490039;31;20171;-85
2023/03/29 06:05:57;;;;;;;7.62;2.35;;;;;;;10.44;39.00;98783.72;4490180;31;20148;-84
2023/03/29 06:08:26;;;;;;;5.50;2.05;;;;;;;10.81;38.62;98780.00;4488305;31;20085;-83
2023/03/29 06:11:01;;;;;;;6.45;2.40;;;;;;;10.73;38.88;98788.81;4487095;32;20093;-83
2023/03/29 06:13:30;;;;;;;;;;;;;;;11.31;37.47;98786.09;4488790;31;20080;-83
2023/03/29 06:15:57;;;;;;;6.50;2.42;;;;;;;10.49;38.49;98792.16;4487899;32;19968;-83
2023/03/29 06:18:24;;;;;;;7.72;2.70;;;;;;;10.55;38.95;98792.00;4489359;31;20089;-84
2023/03/29 06:20:52;;;;;;;8.32;2.70;;;;;;;10.37;39.31;98789.97;4489350;32;20103;-83
2023/03/29 06:23:19;;;;;;;6.87;2.47;;;;;;;10.71;38.70;98797.50;4488891;31;20163;-83
2023/03/29 06:25:46;;;;;;;9.15;2.90;;;;;;;10.65;38.92;98792.53;4486932;32;20095;-83
2023/03/29 06:28:14;;;;;;;8.93;2.67;;;;;;;9.78;40.42;98787.31;4488027;31;20097;-83
2023/03/29 06:30:42;;;;;;;6.97;2.47;;;;;;;9.08;41.92;98776.31;4487723;31;20438;-83
2023/03/29 06:33:09;;;;;;;6.55;2.35;;;;;;;9.12;42.05;98778.78;4487945;31;20137;-79
2023/03/29 06:35:39;;;;;;;6.55;2.35;;;;;;;9.33;41.76;98772.22;4487940;31;20120;-79
2023/03/29 06:38:06;;;;;;;7.22;2.67;;;;;;;8.92;42.69;98791.28;4486706;32;20096;-79
2023/03/29 06:40:36;;;;;;;8.52;2.47;;;;;;;9.24;42.11;98795.63;4488037;32;20080;-79
2023/03/29 06:43:03;;;;;;;6.43;2.40;;;;;;;9.78;40.65;98803.66;4486449;32;20182;-79
2023/03/29 06:45:32;;;;;;;6.37;2.50;;;;;;;10.20;37.88;98794.72;4487901;31;20104;-79
2023/03/29 06:47:59;;;;;;;6.80;2.30;;;;;;;9.08;40.73;98796.91;4487603;31;20348;-79
2023/03/29 06:50:26;;;;;;;7.05;2.40;;;;;;;9.79;39.76;98795.03;4485989;32;20118;-79
2023/03/29 06:52:53;;;;;;;8.18;2.72;;;;;;;9.72;39.84;98800.41;4487647;31;20152;-79
2023/03/29 06:55:21;;;;;;;6.93;2.50;;;;;;;10.19;38.75;98798.19;4486537;32;20432;-79
2023/03/29 06:57:48;;;;;;;8.65;2.80;;;;;;;10.26;39.20;98802.31;4487430;32;20104;-79
2023/03/29 07:00:26;;;;;;;6.22;2.53;;;;;;;10.91;38.49;98807.19;4487943;31;20575;-79
2023/03/29 07:02:55;;;;;;;7.60;2.60;;;;;;;11.45;37.51;98809.69;4487857;31;20132;-78
2023/03/29 07:05:22;;;;;;;8.73;2.65;;;;;;;11.74;37.21;98810.44;4487318;31;20084;-78
2023/03/29 07:07:55;;;;;;;6.68;2.30;;;;;;;11.90;36.49;98818.50;4487733;31;20096;-78
2023/03/29 07:10:30;;;;;;;6.35;2.30;;;;;;;12.00;34.99;98823.31;4487789;31;20093;-78
2023/03/29 07:12:59;;;;;;;9.77;2.47;;;;;;;11.12;35.99;98816.00;4487456;31;20167;-78
2023/03/29 07:15:28;;;;;;;5.62;1.80;;;;;;;11.36;36.66;98810.00;4487654;31;20832;-78
2023/03/29 07:17:56;;;;;;;6.45;2.22;;;;;;;11.32;35.12;98812.75;4486274;31;20483;-78
2023/03/29 07:20:25;;;;;;;9.13;2.37;;;;;;;11.64;33.96;98824.59;4487745;32;20096;-78
2023/03/29 07:22:53;;;;;;;5.05;2.03;;;;;;;12.11;32.14;98815.16;4487645;31;20076;-78
2023/03/29 07:25:22;;;;;;;7.25;2.05;;;;;;;11.78;32.36;98809.41;4487315;31;20097;-78
2023/03/29 07:27:50;;;;;;;6.93;2.17;;;;;;;12.29;32.08;98809.31;4487693;31;20752;-78
2023/03/29 07:30:20;;;;;;;6.78;2.40;;;;;;;12.11;32.65;98808.22;4487744;31;20486;-78
2023/03/29 07:32:48;;;;;;;4.80;2.00;;;;;;;12.44;32.50;98813.03;4487145;31;20107;-78
2023/03/29 07:35:16;;;;;;;4.32;1.80;;;;;;;13.17;31.86;98817.91;4487486;31;20096;-79
2023/03/29 07:37:45;;;;;;;6.20;2.10;;;;;;;14.14;29.85;98822.41;4487498;31;20153;-79
2023/03/29 07:40:17;;;;;;;4.82;1.83;;;;;;;14.63;28.68;98822.81;4487242;31;20084;-78
2023/03/29 07:42:45;;;;;;;4.43;2.00;;;;;;;14.79;28.33;98822.94;4487589;31;20149;-79
2023/03/29 07:45:15;;;;;;;5.75;2.00;;;;;;;15.11;27.63;98827.44;4487316;31;20635;-79
2023/03/29 07:47:43;;;;;;;5.75;1.70;;;;;;;15.49;26.53;98817.72;4485875;32;20162;-78
2023/03/29 07:50:10;;;;;;;6.65;1.83;;;;;;;15.51;26.80;98828.88;4487527;31;20119;-79
2023/03/29 07:52:38;;;;;;;4.10;1.70;;;;;;;14.82;25.70;98828.84;4487130;31;20076;-78
2023/03/29 07:55:07;;;;;;;3.35;1.50;;;;;;;14.32;26.98;98821.59;4487058;31;20111;-78
2023/03/29 07:57:34;;;;;;;4.40;1.70;;;;;;;14.05;26.52;98823.69;4487434;32;20085;-78
2023/03/29 08:00:10;;;;;;;4.55;1.80;;;;;;;13.70;27.88;98824.38;4473053;32;20107;-78
2023/03/29 08:02:37;;;;;;;4.82;1.75;;;;;;;13.85;27.11;98821.13;4487417;31;20103;-78
2023/03/29 08:05:05;;;;;;;4.20;1.50;;;;;;;13.93;26.98;98808.69;4487322;31;20088;-78
2023/03/29 08:07:32;;;;;;;4.15;1.70;;;;;;;13.94;27.31;98812.13;4487059;31;20107;-79
2023/03/29 08:09:59;;;;;;;5.03;2.05;;;;;;;13.98;28.27;98819.69;4487267;31;20080;-79
2023/03/29 08:12:26;;;;;;;4.35;1.70;;;;;;;13.55;28.16;98808.56;4487054;31;20471;-78
2023/03/29 08:14:53;;;;;;;2.97;1.40;;;;;;;13.43;28.04;98813.44;4486922;32;20137;-78
2023/03/29 08:17:20;;;;;;;4.60;1.40;;;;;;;13.16;28.93;98805.03;4487210;31;20127;-77
2023/03/29 08:19:47;;;;;;;4.35;1.60;;;;;;;12.88;29.10;98813.94;4487299;31;20446;-78
2023/03/29 08:22:18;;;;;;;2.92;1.40;;;;;;;12.73;29.28;98806.75;4486915;31;20450;-79
2023/03/29 08:24:45;;;;;;;2.95;1.30;;;;;;;13.02;29.77;98805.59;4487251;31;20118;-80
2023/03/29 08:27:12;;;;;;;4.70;1.45;;;;;;;13.18;30.12;98809.22;4486954;31;20096;-80
2023/03/29 08:29:39;;;;;;;6.12;1.30;;;;;;;13.11;30.02;98799.19;4486195;31;20106;-79
2023/03/29 08:32:06;;;;;;;6.53;1.65;;;;;;;12.86;29.46;98791.56;4486863;31;20080;-80
2023/03/29 08:34:34;;;;;;;6.50;1.40;;;;;;;12.05;32.18;98779.19;4486780;31;20096;-79
2023/03/29 08:37:03;;;;;;;4.95;1.20;;;;;;;12.54;30.26;98779.88;4486690;31;20081;-80
2023/03/29 08:39:30;;;;;;;3.30;1.10;;;;;;;13.13;29.25;98777.50;4486714;31;20164;-80
2023/03/29 08:42:15;;;;;;;3.92;1.30;;;;;;;12.61;30.26;98771.00;4486800;31;20068;-79
2023/03/29 08:45:13;;;;;;;2.22;1.30;;;;;;;12.50;30.32;98775.75;4486889;31;20156;-80
2023/03/29 08:47:57;;;;;;;3.37;1.10;;;;;;;13.34;29.72;98772.34;4486733;31;20104;-79
2023/03/29 08:50:40;;;;;;;7.07;1.23;;;;;;;13.17;28.96;98779.03;4486298;31;20426;-80
2023/03/29 08:53:13;;;;;;;6.10;1.50;;;;;;;13.39;28.90;98778.19;4486670;32;20340;-79
2023/03/29 08:55:42;;;;;;;3.95;1.35;;;;;;;13.60;29.67;98778.09;4485289;32;20169;-78
2023/03/29 08:58:16;;;;;;;4.03;1.33;;;;;;;12.94;29.48;98776.56;4484740;32;20109;-79
2023/03/29 09:00:52;;;;;;;3.70;1.27;;;;;;;13.09;29.21;98777.69;4484870;32;20084;-79
2023/03/29 09:03:24;;;;;;;3.40;1.30;;;;;;;13.36;29.11;98776.56;4486187;32;20095;-79
2023/03/29 09:06:09;;;;;;;5.18;1.55;;;;;;;13.68;28.66;98780.38;4486069;32;20108;-79
2023/03/29 09:08:40;;;;;;;4.80;1.42;;;;;;;14.82;29.60;98776.03;4484941;32;20112;-79
2023/03/29 09:11:17;;;;;;;6.07;1.73;;;;;;;15.01;28.94;98777.66;4485979;31;20652;-79
2023/03/29 09:14:13;;;;;;;;;;;;;;;14.45;29.82;98772.56;4486787;31;20117;-79
2023/03/29 09:16:51;;;;;;;4.35;1.60;;;;;;;14.75;29.55;98762.50;4443319;32;19996;-79
2023/03/29 09:19:21;;;;;;;;;;;;;;;15.92;27.17;98760.91;4484912;32;20119;-79
2023/03/29 09:22:00;;;;;;;5.28;1.50;;;;;;;16.06;26.91;98762.78;4485214;32;19976;-79
2023/03/29 09:24:30;;;;;;;4.95;1.50;;;;;;;16.03;26.59;98755.12;4485742;31;20077;-78
2023/03/29 09:27:20;;;;;;;6.80;1.40;;;;;;;16.08;25.92;98751.37;4485969;31;20115;-79
2023/03/29 09:30:24;;;;;;;5.30;1.35;;;;;;;16.01;26.16;98744.81;4484998;32;20108;-79
2023/03/29 09:32:55;;;;;;;5.97;1.50;;;;;;;15.75;26.35;98747.97;4484394;32;20163;-79
2023/03/29 09:35:26;;;;;;;5.30;1.37;;;;;;;14.66;28.36;98752.53;4485957;31;20107;-78
2023/03/29 09:37:54;;;;;;;3.75;1.33;;;;;;;15.03;26.98;98744.66;4484833;32;20167;-79
2023/03/29 09:40:29;;;;;;;2.85;1.30;;;;;;;15.27;27.31;98752.97;4486329;32;20500;-78
2023/03/29 09:42:57;;;;;;;3.85;1.40;;;;;;;14.71;26.71;98747.97;4488413;31;20515;-78
2023/03/29 09:45:24;;;;;;;4.93;1.55;;;;;;;15.15;26.58;98753.59;4487777;31;20153;-79
2023/03/29 09:48:13;;;;;;;4.78;1.65;;;;;;;14.46;28.21;98754.34;4488054;32;20109;-79
2023/03/29 09:50:43;;;;;;;5.87;1.80;;;;;;;14.34;29.35;98749.69;4488065;31;20490;-78
2023/03/29 09:53:10;;;;;;;5.30;1.62;;;;;;;14.06;30.87;98738.91;4486707;32;20099;-80
2023/03/29 09:55:39;;;;;;;6.75;2.00;;;;;;;14.43;27.68;98738.88;4487973;32;20435;-78
2023/03/29 09:58:29;;;;;;;7.22;1.77;;;;;;;14.90;28.18;98734.94;4488179;31;20091;-78
2023/03/29 10:00:58;;;;;;;4.95;1.95;;;;;;;14.44;27.66;98727.59;4486749;32;20092;-78
2023/03/29 10:03:29;;;;;;;5.00;1.85;;;;;;;13.93;29.20;98732.56;4488338;31;20610;-78
2023/03/29 10:05:59;;;;;;;5.60;1.90;;;;;;;14.34;29.01;98734.09;4488104;31;20076;-78
2023/03/29 10:08:35;;;;;;;6.40;1.90;;;;;;;14.90;29.35;98724.56;4487678;32;20157;-79
2023/03/29 10:11:07;;;;;;;6.05;1.90;;;;;;;15.03;29.44;98721.25;4488123;31;20111;-78
2023/03/29 10:13:36;;;;;;;3.15;1.50;;;;;;;14.31;30.71;98725.63;4486538;32;20149;-78
2023/03/29 10:16:08;;;;;;;4.15;2.03;;;;;;;14.53;28.83;98718.53;4486702;32;20077;-78
2023/03/29 10:18:40;;;;;;;4.72;1.60;;;;;;;14.68;27.64;98711.78;4487726;31;20340;-78
2023/03/29 10:21:10;;;;;;;4.25;1.62;;;;;;;14.29;27.86;98712.72;4487574;31;20135;-80
2023/03/29 10:23:37;;;;;;;4.05;1.65;;;;;;;13.83;28.00;98709.69;4486885;32;20085;-79
2023/03/29 10:26:06;;;;;;;5.25;1.58;;;;;;;13.92;29.84;98703.19;4487912;31;20161;-78
2023/03/29 10:28:35;;;;;;;5.18;1.60;;;;;;;14.50;27.75;98705.72;4486377;32;20161;-78
2023/03/29 10:31:02;;;;;;;5.82;1.80;;;;;;;14.03;27.33;98707.91;4488026;31;20108;-78
2023/03/29 10:33:32;;;;;;;5.60;1.92;;;;;;;14.04;28.02;98709.59;4486758;32;20081;-78
2023/03/29 10:36:01;;;;;;;6.72;2.12;;;;;;;14.65;28.02;98697.16;4487528;31;20080;-79
2023/03/29 10:38:29;;;;;;;4.65;1.90;;;;;;;14.29;28.35;98691.97;4487658;31;20100;-78
2023/03/29 10:41:06;;;;;;;5.07;1.83;;;;;;;14.44;27.41;98690.37;4487954;31;20155;-78
2023/03/29 10:43:38;;;;;;;4.72;1.65;;;;;;;13.52;27.71;98686.03;4487515;31;20141;-78
2023/03/29 10:46:17;;;;;;;8.50;1.70;;;;;;;13.34;28.55;98690.25;4487953;31;20140;-78
2023/03/29 10:48:56;;;;;;;5.62;1.65;;;;;;;13.18;28.24;98696.97;4486426;32;20168;-78
2023/03/29 10:51:26;;;;;;;4.72;1.60;;;;;;;13.57;28.64;98684.91;4487552;31;20142;-78
2023/03/29 10:53:53;;;;;;;4.95;1.92;;;;;;;13.56;27.83;98685.81;4487922;31;20139;-78
2023/03/29 10:56:40;;;;;;;3.80;1.50;;;;;;;13.68;28.85;98689.59;4487361;31;20136;-78
2023/03/29 10:59:29;;;;;;;5.70;1.95;;;;;;;13.66;28.38;98683.66;4487702;32;20097;-78
2023/03/29 11:02:02;;;;;;;3.97;1.60;;;;;;;13.19;28.49;98683.16;4486807;32;20512;-78
2023/03/29 11:04:44;;;;;;;5.45;1.85;;;;;;;13.94;27.96;98679.81;4487474;31;20088;-78
2023/03/29 11:07:30;;;;;;;4.78;1.60;;;;;;;14.06;28.88;98684.44;4487801;31;20474;-79
2023/03/29 11:10:04;;;;;;;4.22;1.55;;;;;;;13.87;28.36;98684.44;4486288;32;20130;-78
2023/03/29 11:13:09;;;;;;;5.53;1.70;;;;;;;14.10;28.34;98683.34;4487741;31;20100;-79
2023/03/29 11:15:44;;;;;;;5.87;2.08;;;;;;;14.51;28.62;98684.00;4486433;32;20084;-79
2023/03/29 11:18:21;;;;;;;5.18;1.85;;;;;;;14.17;29.32;98674.37;4487268;31;20150;-78
2023/03/29 11:20:57;;;;;;;4.97;1.75;;;;;;;13.03;31.02;98667.37;4487769;31;20096;-78
2023/03/29 11:23:43;;;;;;;4.00;1.60;;;;;;;13.83;30.65;98672.53;4487352;31;20084;-78
2023/03/29 11:26:31;;;;;;;5.57;1.90;;;;;;;13.74;30.00;98668.59;4487571;31;20092;-78
2023/03/29 11:29:10;;;;;;;5.97;2.08;;;;;;;14.04;29.65;98660.31;4487546;31;20348;-78
2023/03/29 11:31:56;;;;;;;6.80;2.03;;;;;;;13.87;29.84;98661.91;4487182;31;20114;-78
2023/03/29 11:34:35;;;;;;;4.43;1.77;;;;;;;13.86;30.43;98664.59;4487689;31;20443;-78
2023/03/29 11:37:14;;;;;;;6.53;1.98;;;;;;;13.54;30.88;98658.28;4487500;31;20127;-78
2023/03/29 11:39:48;;;;;;;7.05;1.92;;;;;;;13.62;30.96;98656.19;4487165;31;20080;-78
2023/03/29 11:42:20;;;;;;;6.05;1.70;;;;;;;13.73;30.42;98650.50;4480231;31;232463;-78
2023/03/29 11:44:50;;;;;;;5.47;2.00;;;;;;;13.84;29.32;98648.25;4486017;32;20122;-78
2023/03/29 11:47:21;;;;;;;6.07;2.20;;;;;;;13.52;31.65;98650.56;4487419;31;20114;-78
2023/03/29 11:50:16;;;;;;;5.05;1.90;;;;;;;14.13;29.87;98636.50;4486209;32;20080;-78
2023/03/29 11:52:49;;;;;;;6.12;2.00;;;;;;;13.75;30.40;98639.16;4486844;31;20153;-78
2023/03/29 11:55:24;;;;;;;6.60;1.98;;;;;;;14.26;30.09;98636.78;4486281;32;20116;-78
2023/03/29 11:57:55;;;;;;;5.07;2.12;;;;;;;14.56;30.84;98624.06;4486185;32;20541;-77
2023/03/29 12:00:33;;;;;;;5.97;1.80;;;;;;;14.59;31.49;98629.13;4485749;32;20080;-77
2023/03/29 12:03:38;;;;;;;6.47;1.80;;;;;;;14.38;32.32;98628.37;4485435;32;20156;-77
2023/03/29 12:06:32;;;;;;;2.00;1.02;;;;;;;14.41;32.64;98610.88;4486863;31;20111;-78
2023/03/29 12:09:04;;;;;;;2.92;1.40;;;;;;;14.08;31.15;98600.41;4485818;32;20561;-77
2023/03/29 12:11:46;;;;;;;3.60;1.58;;;;;;;13.83;31.74;98592.94;4487158;31;20076;-77
2023/03/29 12:14:18;;;;;;;4.87;1.40;;;;;;;13.82;32.69;98608.56;4485760;32;20115;-78
2023/03/29 12:17:05;;;;;;;6.90;1.58;;;;;;;13.49;32.06;98604.03;4487208;31;20097;-77
2023/03/29 12:19:54;;;;;;;5.47;1.50;;;;;;;13.78;32.29;98599.25;4485663;32;20100;-78
2023/03/29 12:22:21;;;;;;;3.03;1.30;;;;;;;14.52;30.63;98588.78;4485929;32;20145;-78
2023/03/29 12:24:50;;;;;;;6.82;1.48;;;;;;;14.38;31.44;98592.88;4487080;31;20097;-79
2023/03/29 12:27:49;;;;;;;3.15;1.30;;;;;;;14.40;31.35;98591.03;4485427;32;20096;-79
2023/03/29 12:30:28;;;;;;;4.45;1.40;;;;;;;14.55;31.25;98588.63;4487071;31;20232;-79
2023/03/29 12:33:23;;;;;;;3.33;1.40;;;;;;;15.19;30.44;98580.94;4487034;31;20072;-79
2023/03/29 12:36:03;;;;;;;3.72;1.40;;;;;;;15.07;30.26;98568.59;4486359;32;20108;-79
2023/03/29 12:38:31;;;;;;;4.18;1.40;;;;;;;14.13;31.47;98575.06;4486792;31;20100;-79
2023/03/29 12:41:00;;;;;;;2.40;1.00;;;;;;;14.69;31.03;98583.59;4485502;32;20096;-79
2023/03/29 12:43:31;;;;;;;5.10;1.33;;;;;;;14.16;31.80;98577.53;4472725;32;20144;-79
2023/03/29 12:46:07;;;;;;;3.20;1.08;;;;;;;14.40;32.14;98567.69;4486638;31;20161;-79
2023/03/29 12:48:36;;;;;;;2.65;1.17;;;;;;;14.46;30.73;98569.13;4486435;32;20096;-79
2023/03/29 12:51:09;;;;;;;2.70;1.08;;;;;;;13.96;31.62;98563.84;4486598;31;20096;-79
2023/03/29 12:53:38;;;;;;;4.90;1.37;;;;;;;14.24;31.36;98560.72;4485518;32;20126;-78
2023/03/29 12:56:07;;;;;;;2.05;1.10;;;;;;;14.58;32.13;98567.72;4486033;31;20093;-78
2023/03/29 12:58:49;;;;;;;3.10;1.20;;;;;;;14.82;30.31;98563.00;4486417;31;20576;-78
2023/03/29 13:01:26;;;;;;;4.53;1.12;;;;;;;14.92;29.84;98559.03;4486595;32;20136;-79
2023/03/29 13:04:18;;;;;;;1.87;0.97;;;;;;;14.31;30.66;98559.50;4486455;31;20099;-79
2023/03/29 13:06:48;;;;;;;6.07;1.17;;;;;;;14.61;30.49;98559.75;4486515;31;20088;-79
2023/03/29 13:09:29;;;;;;;3.12;1.25;;;;;;;14.60;30.81;98568.47;4485982;31;20151;-79